sensor_id;sensor_type;location;lat;lon;timestamp;temperature;humidity
15105;DHT22;7653;48.994;9.212;2023-07-28T00:01:23;18.00;99.90
15105;DHT22;7653;48.994;9.212;2023-07-28T00:03:49;18.00;99.90
15105;DHT22;7653;48.994;9.212;2023-07-28T00:06:14;18.00;99.90
15105;DHT22;7653;48.994;9.212;2023-07-28T00:08:40;18.00;99.90
15105;DHT22;7653;48.994;9.212;2023-07-28T00:11:10;17.80;99.90
15105;DHT22;7653;48.994;9.212;2023-07-28T00:13:37;17.70;99.90
15105;DHT22;7653;48.994;9.212;2023-07-28T00:16:03;17.70;99.90
15105;DHT22;7653;48.994;9.212;2023-07-28T00:18:29;17.80;99.90
15105;DHT22;7653;48.994;9.212;2023-07-28T00:20:55;17.90;99.90
15105;DHT22;7653;48.994;9.212;2023-07-28T00:23:20;17.80;99.90
15105;DHT22;7653;48.994;9.212;2023-07-28T00:25:46;17.80;99.90
15105;DHT22;7653;48.994;9.212;2023-07-28T00:28:11;17.90;99.90
15105;DHT22;7653;48.994;9.212;2023-07-28T00:30:37;18.00;99.90
15105;DHT22;7653;48.994;9.212;2023-07-28T00:33:03;18.00;99.90
15105;DHT22;7653;48.994;9.212;2023-07-28T00:35:29;17.90;99.90
15105;DHT22;7653;48.994;9.212;2023-07-28T00:37:54;18.00;99.90
15105;DHT22;7653;48.994;9.212;2023-07-28T00:40:21;18.00;99.90
15105;DHT22;7653;48.994;9.212;2023-07-28T00:42:47;18.00;99.90
15105;DHT22;7653;48.994;9.212;2023-07-28T00:45:13;18.00;99.90
15105;DHT22;7653;48.994;9.212;2023-07-28T00:47:39;18.00;99.90
15105;DHT22;7653;48.994;9.212;2023-07-28T00:50:06;17.90;99.90
15105;DHT22;7653;48.994;9.212;2023-07-28T00:52:32;17.70;99.90
15105;DHT22;7653;48.994;9.212;2023-07-28T00:54:57;17.80;99.90
15105;DHT22;7653;48.994;9.212;2023-07-28T00:57:23;17.80;99.90
15105;DHT22;7653;48.994;9.212;2023-07-28T00:59:49;17.90;99.90
15105;DHT22;7653;48.994;9.212;2023-07-28T01:02:14;17.90;99.90
15105;DHT22;7653;48.994;9.212;2023-07-28T01:04:40;17.90;99.90
15105;DHT22;7653;48.994;9.212;2023-07-28T01:09:43;18.00;99.90
15105;DHT22;7653;48.994;9.212;2023-07-28T01:12:11;18.00;99.90
15105;DHT22;7653;48.994;9.212;2023-07-28T01:14:37;17.90;99.90
15105;DHT22;7653;48.994;9.212;2023-07-28T01:17:03;18.10;99.90
15105;DHT22;7653;48.994;9.212;2023-07-28T01:19:29;17.90;99.90
15105;DHT22;7653;48.994;9.212;2023-07-28T01:25:08;18.00;99.90
15105;DHT22;7653;48.994;9.212;2023-07-28T01:27:37;17.90;99.90
15105;DHT22;7653;48.994;9.212;2023-07-28T01:30:03;17.90;99.90
15105;DHT22;7653;48.994;9.212;2023-07-28T01:32:29;17.90;99.90
15105;DHT22;7653;48.994;9.212;2023-07-28T01:34:55;17.80;99.90
15105;DHT22;7653;48.994;9.212;2023-07-28T01:37:20;17.60;99.90
15105;DHT22;7653;48.994;9.212;2023-07-28T01:39:46;17.60;99.90
15105;DHT22;7653;48.994;9.212;2023-07-28T01:42:12;17.60;99.90
15105;DHT22;7653;48.994;9.212;2023-07-28T01:44:37;17.50;99.90
15105;DHT22;7653;48.994;9.212;2023-07-28T01:47:03;17.50;99.90
15105;DHT22;7653;48.994;9.212;2023-07-28T01:49:28;17.60;99.90
15105;DHT22;7653;48.994;9.212;2023-07-28T01:51:54;17.60;99.90
15105;DHT22;7653;48.994;9.212;2023-07-28T01:54:20;17.60;99.90
15105;DHT22;7653;48.994;9.212;2023-07-28T01:56:45;17.60;99.90
15105;DHT22;7653;48.994;9.212;2023-07-28T01:59:11;17.60;99.90
15105;DHT22;7653;48.994;9.212;2023-07-28T02:01:38;17.60;99.90
15105;DHT22;7653;48.994;9.212;2023-07-28T02:04:03;17.60;99.90
15105;DHT22;7653;48.994;9.212;2023-07-28T02:06:29;17.60;99.90
15105;DHT22;7653;48.994;9.212;2023-07-28T02:08:55;17.50;99.90
15105;DHT22;7653;48.994;9.212;2023-07-28T02:11:20;17.50;99.90
15105;DHT22;7653;48.994;9.212;2023-07-28T02:13:46;17.40;99.90
15105;DHT22;7653;48.994;9.212;2023-07-28T02:16:12;17.20;99.90
15105;DHT22;7653;48.994;9.212;2023-07-28T02:18:37;17.20;99.90
15105;DHT22;7653;48.994;9.212;2023-07-28T02:21:03;17.10;99.90
15105;DHT22;7653;48.994;9.212;2023-07-28T02:23:28;17.10;99.90
15105;DHT22;7653;48.994;9.212;2023-07-28T02:25:54;17.20;99.90
15105;DHT22;7653;48.994;9.212;2023-07-28T02:28:20;17.30;99.90
15105;DHT22;7653;48.994;9.212;2023-07-28T02:30:45;17.40;99.90
15105;DHT22;7653;48.994;9.212;2023-07-28T02:33:11;17.50;99.90
15105;DHT22;7653;48.994;9.212;2023-07-28T02:35:36;17.40;99.90
15105;DHT22;7653;48.994;9.212;2023-07-28T02:38:02;17.40;99.90
15105;DHT22;7653;48.994;9.212;2023-07-28T02:40:28;17.40;99.90
15105;DHT22;7653;48.994;9.212;2023-07-28T02:42:53;17.40;99.90
15105;DHT22;7653;48.994;9.212;2023-07-28T02:45:19;17.40;99.90
15105;DHT22;7653;48.994;9.212;2023-07-28T02:47:45;17.40;99.90
15105;DHT22;7653;48.994;9.212;2023-07-28T02:50:11;17.40;99.90
15105;DHT22;7653;48.994;9.212;2023-07-28T02:52:36;17.40;99.90
15105;DHT22;7653;48.994;9.212;2023-07-28T02:55:02;17.20;99.90
15105;DHT22;7653;48.994;9.212;2023-07-28T02:57:27;17.30;99.90
15105;DHT22;7653;48.994;9.212;2023-07-28T02:59:53;17.20;99.90
15105;DHT22;7653;48.994;9.212;2023-07-28T03:02:19;17.20;99.90
15105;DHT22;7653;48.994;9.212;2023-07-28T03:04:44;17.10;99.90
15105;DHT22;7653;48.994;9.212;2023-07-28T03:07:10;17.10;99.90
15105;DHT22;7653;48.994;9.212;2023-07-28T03:09:35;17.20;99.90
15105;DHT22;7653;48.994;9.212;2023-07-28T03:12:01;17.20;99.90
15105;DHT22;7653;48.994;9.212;2023-07-28T03:14:28;17.30;99.90
15105;DHT22;7653;48.994;9.212;2023-07-28T03:16:54;17.30;99.90
15105;DHT22;7653;48.994;9.212;2023-07-28T03:19:19;17.20;99.90
15105;DHT22;7653;48.994;9.212;2023-07-28T03:21:45;17.20;99.90
15105;DHT22;7653;48.994;9.212;2023-07-28T03:24:11;17.20;99.90
15105;DHT22;7653;48.994;9.212;2023-07-28T03:26:36;17.20;99.90
15105;DHT22;7653;48.994;9.212;2023-07-28T03:29:02;17.20;99.90
15105;DHT22;7653;48.994;9.212;2023-07-28T03:31:28;17.20;99.90
15105;DHT22;7653;48.994;9.212;2023-07-28T03:33:53;17.20;99.90
15105;DHT22;7653;48.994;9.212;2023-07-28T03:36:19;17.20;99.90
15105;DHT22;7653;48.994;9.212;2023-07-28T03:38:45;17.30;99.90
15105;DHT22;7653;48.994;9.212;2023-07-28T03:41:10;17.30;99.90
15105;DHT22;7653;48.994;9.212;2023-07-28T03:43:36;17.30;99.90
15105;DHT22;7653;48.994;9.212;2023-07-28T03:46:01;17.20;99.90
15105;DHT22;7653;48.994;9.212;2023-07-28T03:48:27;17.30;99.90
15105;DHT22;7653;48.994;9.212;2023-07-28T03:50:53;17.30;99.90
15105;DHT22;7653;48.994;9.212;2023-07-28T03:53:18;17.40;99.90
15105;DHT22;7653;48.994;9.212;2023-07-28T03:55:44;17.40;99.90
15105;DHT22;7653;48.994;9.212;2023-07-28T03:58:09;17.30;99.90
15105;DHT22;7653;48.994;9.212;2023-07-28T04:00:35;17.30;99.90
15105;DHT22;7653;48.994;9.212;2023-07-28T04:03:01;17.30;99.90
15105;DHT22;7653;48.994;9.212;2023-07-28T04:05:26;17.20;99.90
15105;DHT22;7653;48.994;9.212;2023-07-28T04:07:52;17.20;99.90
15105;DHT22;7653;48.994;9.212;2023-07-28T04:10:17;17.20;99.90
15105;DHT22;7653;48.994;9.212;2023-07-28T04:12:43;17.20;99.90
15105;DHT22;7653;48.994;9.212;2023-07-28T04:15:09;17.10;99.90
15105;DHT22;7653;48.994;9.212;2023-07-28T04:17:35;17.20;99.90
15105;DHT22;7653;48.994;9.212;2023-07-28T04:20:00;17.20;99.90
15105;DHT22;7653;48.994;9.212;2023-07-28T04:22:27;17.30;99.90
15105;DHT22;7653;48.994;9.212;2023-07-28T04:24:53;17.30;99.90
15105;DHT22;7653;48.994;9.212;2023-07-28T04:27:19;17.40;99.90
15105;DHT22;7653;48.994;9.212;2023-07-28T04:29:45;17.40;99.90
15105;DHT22;7653;48.994;9.212;2023-07-28T04:32:10;17.40;99.90
15105;DHT22;7653;48.994;9.212;2023-07-28T04:34:36;17.40;99.90
15105;DHT22;7653;48.994;9.212;2023-07-28T04:37:02;17.40;99.90
15105;DHT22;7653;48.994;9.212;2023-07-28T04:39:27;17.50;99.90
15105;DHT22;7653;48.994;9.212;2023-07-28T04:41:53;17.60;99.90
15105;DHT22;7653;48.994;9.212;2023-07-28T04:44:19;17.50;99.90
15105;DHT22;7653;48.994;9.212;2023-07-28T04:46:45;17.50;99.90
15105;DHT22;7653;48.994;9.212;2023-07-28T04:49:13;17.50;99.90
15105;DHT22;7653;48.994;9.212;2023-07-28T04:51:39;17.40;99.90
15105;DHT22;7653;48.994;9.212;2023-07-28T04:54:04;17.40;99.90
15105;DHT22;7653;48.994;9.212;2023-07-28T04:56:30;17.60;99.90
15105;DHT22;7653;48.994;9.212;2023-07-28T04:58:56;17.60;99.90
15105;DHT22;7653;48.994;9.212;2023-07-28T05:01:24;17.60;99.90
15105;DHT22;7653;48.994;9.212;2023-07-28T05:03:49;17.40;99.90
15105;DHT22;7653;48.994;9.212;2023-07-28T05:06:15;17.40;99.90
15105;DHT22;7653;48.994;9.212;2023-07-28T05:08:41;17.30;99.90
15105;DHT22;7653;48.994;9.212;2023-07-28T05:11:06;17.40;99.90
15105;DHT22;7653;48.994;9.212;2023-07-28T05:13:32;17.40;99.90
15105;DHT22;7653;48.994;9.212;2023-07-28T05:15:58;17.60;99.90
15105;DHT22;7653;48.994;9.212;2023-07-28T05:18:23;17.60;99.90
15105;DHT22;7653;48.994;9.212;2023-07-28T05:20:49;17.50;99.90
15105;DHT22;7653;48.994;9.212;2023-07-28T05:23:14;17.60;99.90
15105;DHT22;7653;48.994;9.212;2023-07-28T05:25:40;17.60;99.90
15105;DHT22;7653;48.994;9.212;2023-07-28T05:28:06;17.50;99.90
15105;DHT22;7653;48.994;9.212;2023-07-28T05:30:32;17.40;99.90
15105;DHT22;7653;48.994;9.212;2023-07-28T05:32:57;17.50;99.90
15105;DHT22;7653;48.994;9.212;2023-07-28T05:35:23;17.60;99.90
15105;DHT22;7653;48.994;9.212;2023-07-28T05:37:49;17.70;99.90
15105;DHT22;7653;48.994;9.212;2023-07-28T05:40:14;17.80;99.90
15105;DHT22;7653;48.994;9.212;2023-07-28T05:42:40;17.80;99.90
15105;DHT22;7653;48.994;9.212;2023-07-28T05:45:06;17.70;99.90
15105;DHT22;7653;48.994;9.212;2023-07-28T05:47:32;17.80;99.90
15105;DHT22;7653;48.994;9.212;2023-07-28T05:49:57;17.80;99.90
15105;DHT22;7653;48.994;9.212;2023-07-28T05:52:23;17.90;99.90
15105;DHT22;7653;48.994;9.212;2023-07-28T05:54:49;17.80;99.90
15105;DHT22;7653;48.994;9.212;2023-07-28T05:57:14;17.80;99.90
15105;DHT22;7653;48.994;9.212;2023-07-28T05:59:40;17.80;99.90
15105;DHT22;7653;48.994;9.212;2023-07-28T06:02:06;17.90;99.90
15105;DHT22;7653;48.994;9.212;2023-07-28T06:04:31;17.90;99.90
15105;DHT22;7653;48.994;9.212;2023-07-28T06:06:57;17.90;99.90
15105;DHT22;7653;48.994;9.212;2023-07-28T06:09:22;17.90;99.90
15105;DHT22;7653;48.994;9.212;2023-07-28T06:11:48;18.00;99.90
15105;DHT22;7653;48.994;9.212;2023-07-28T06:14:14;18.10;99.90
15105;DHT22;7653;48.994;9.212;2023-07-28T06:16:39;18.10;99.90
15105;DHT22;7653;48.994;9.212;2023-07-28T06:19:05;18.10;99.90
15105;DHT22;7653;48.994;9.212;2023-07-28T06:21:31;18.00;99.90
15105;DHT22;7653;48.994;9.212;2023-07-28T06:23:57;18.20;99.90
15105;DHT22;7653;48.994;9.212;2023-07-28T06:26:23;18.20;99.90
15105;DHT22;7653;48.994;9.212;2023-07-28T06:28:48;18.20;99.90
15105;DHT22;7653;48.994;9.212;2023-07-28T06:31:14;18.00;99.90
15105;DHT22;7653;48.994;9.212;2023-07-28T06:33:39;18.00;99.90
15105;DHT22;7653;48.994;9.212;2023-07-28T06:36:05;18.00;99.90
15105;DHT22;7653;48.994;9.212;2023-07-28T06:38:31;18.00;99.90
15105;DHT22;7653;48.994;9.212;2023-07-28T06:40:58;18.00;99.90
15105;DHT22;7653;48.994;9.212;2023-07-28T06:43:23;18.10;99.90
15105;DHT22;7653;48.994;9.212;2023-07-28T06:45:53;18.20;99.90
15105;DHT22;7653;48.994;9.212;2023-07-28T06:48:19;18.30;99.40
15105;DHT22;7653;48.994;9.212;2023-07-28T06:50:45;18.30;98.80
15105;DHT22;7653;48.994;9.212;2023-07-28T06:53:10;18.30;99.20
15105;DHT22;7653;48.994;9.212;2023-07-28T06:55:36;18.40;99.40
15105;DHT22;7653;48.994;9.212;2023-07-28T06:58:05;18.40;97.70
15105;DHT22;7653;48.994;9.212;2023-07-28T07:00:31;18.60;98.40
15105;DHT22;7653;48.994;9.212;2023-07-28T07:02:56;18.70;98.80
15105;DHT22;7653;48.994;9.212;2023-07-28T07:05:22;18.80;97.20
15105;DHT22;7653;48.994;9.212;2023-07-28T07:07:49;18.80;96.80
15105;DHT22;7653;48.994;9.212;2023-07-28T07:10:14;18.90;95.40
15105;DHT22;7653;48.994;9.212;2023-07-28T07:12:40;19.00;95.20
15105;DHT22;7653;48.994;9.212;2023-07-28T07:15:06;19.00;96.10
15105;DHT22;7653;48.994;9.212;2023-07-28T07:17:32;19.10;95.00
15105;DHT22;7653;48.994;9.212;2023-07-28T07:19:58;19.10;95.00
15105;DHT22;7653;48.994;9.212;2023-07-28T07:22:24;19.10;94.50
15105;DHT22;7653;48.994;9.212;2023-07-28T07:24:50;19.00;93.90
15105;DHT22;7653;48.994;9.212;2023-07-28T07:27:15;19.00;96.10
15105;DHT22;7653;48.994;9.212;2023-07-28T07:29:41;19.10;95.10
15105;DHT22;7653;48.994;9.212;2023-07-28T07:32:07;19.00;94.70
15105;DHT22;7653;48.994;9.212;2023-07-28T07:34:34;19.00;95.10
15105;DHT22;7653;48.994;9.212;2023-07-28T07:37:02;18.90;93.70
15105;DHT22;7653;48.994;9.212;2023-07-28T07:39:28;19.00;93.80
15105;DHT22;7653;48.994;9.212;2023-07-28T07:41:54;19.00;94.20
15105;DHT22;7653;48.994;9.212;2023-07-28T07:44:20;19.00;93.40
15105;DHT22;7653;48.994;9.212;2023-07-28T07:46:45;19.10;95.00
15105;DHT22;7653;48.994;9.212;2023-07-28T07:49:11;19.10;94.30
15105;DHT22;7653;48.994;9.212;2023-07-28T07:51:36;19.00;93.40
15105;DHT22;7653;48.994;9.212;2023-07-28T07:54:02;19.10;94.10
15105;DHT22;7653;48.994;9.212;2023-07-28T07:56:28;19.20;94.40
15105;DHT22;7653;48.994;9.212;2023-07-28T07:58:53;19.40;93.60
15105;DHT22;7653;48.994;9.212;2023-07-28T08:01:19;19.40;93.50
15105;DHT22;7653;48.994;9.212;2023-07-28T08:03:45;19.30;93.00
15105;DHT22;7653;48.994;9.212;2023-07-28T08:06:10;19.30;93.30
15105;DHT22;7653;48.994;9.212;2023-07-28T08:08:38;19.30;93.00
15105;DHT22;7653;48.994;9.212;2023-07-28T08:11:04;19.30;93.00
15105;DHT22;7653;48.994;9.212;2023-07-28T08:13:29;19.10;93.20
15105;DHT22;7653;48.994;9.212;2023-07-28T08:15:55;19.20;93.50
15105;DHT22;7653;48.994;9.212;2023-07-28T08:18:21;19.20;93.00
15105;DHT22;7653;48.994;9.212;2023-07-28T08:20:46;19.20;92.70
15105;DHT22;7653;48.994;9.212;2023-07-28T08:23:12;19.20;92.20
15105;DHT22;7653;48.994;9.212;2023-07-28T08:25:38;19.20;92.20
15105;DHT22;7653;48.994;9.212;2023-07-28T08:28:04;19.10;92.80
15105;DHT22;7653;48.994;9.212;2023-07-28T08:30:29;19.10;93.00
15105;DHT22;7653;48.994;9.212;2023-07-28T08:32:57;19.10;93.00
15105;DHT22;7653;48.994;9.212;2023-07-28T08:35:23;19.30;92.70
15105;DHT22;7653;48.994;9.212;2023-07-28T08:37:48;19.40;92.60
15105;DHT22;7653;48.994;9.212;2023-07-28T08:40:14;19.40;90.20
15105;DHT22;7653;48.994;9.212;2023-07-28T08:42:40;19.50;90.00
15105;DHT22;7653;48.994;9.212;2023-07-28T08:45:07;19.60;89.90
15105;DHT22;7653;48.994;9.212;2023-07-28T08:47:36;19.70;90.00
15105;DHT22;7653;48.994;9.212;2023-07-28T08:50:03;19.60;87.70
15105;DHT22;7653;48.994;9.212;2023-07-28T08:52:29;19.70;86.20
15105;DHT22;7653;48.994;9.212;2023-07-28T08:54:54;19.90;83.00
15105;DHT22;7653;48.994;9.212;2023-07-28T08:57:20;19.90;83.60
15105;DHT22;7653;48.994;9.212;2023-07-28T08:59:46;19.90;83.10
15105;DHT22;7653;48.994;9.212;2023-07-28T09:02:16;20.00;84.40
15105;DHT22;7653;48.994;9.212;2023-07-28T09:04:43;20.20;85.30
15105;DHT22;7653;48.994;9.212;2023-07-28T09:07:08;20.00;79.00
15105;DHT22;7653;48.994;9.212;2023-07-28T09:09:35;20.00;79.60
15105;DHT22;7653;48.994;9.212;2023-07-28T09:12:02;20.20;80.50
15105;DHT22;7653;48.994;9.212;2023-07-28T09:14:29;20.40;79.30
15105;DHT22;7653;48.994;9.212;2023-07-28T09:16:55;20.70;76.40
15105;DHT22;7653;48.994;9.212;2023-07-28T09:19:21;20.70;70.10
15105;DHT22;7653;48.994;9.212;2023-07-28T09:21:58;20.70;68.30
15105;DHT22;7653;48.994;9.212;2023-07-28T09:24:32;20.80;71.60
15105;DHT22;7653;48.994;9.212;2023-07-28T09:26:59;21.00;68.00
15105;DHT22;7653;48.994;9.212;2023-07-28T09:29:26;20.90;66.80
15105;DHT22;7653;48.994;9.212;2023-07-28T09:31:53;20.80;67.90
15105;DHT22;7653;48.994;9.212;2023-07-28T09:34:28;20.90;65.30
15105;DHT22;7653;48.994;9.212;2023-07-28T09:36:58;21.00;64.60
15105;DHT22;7653;48.994;9.212;2023-07-28T09:39:24;21.00;66.10
15105;DHT22;7653;48.994;9.212;2023-07-28T09:41:49;21.00;63.90
15105;DHT22;7653;48.994;9.212;2023-07-28T09:44:16;21.10;65.40
15105;DHT22;7653;48.994;9.212;2023-07-28T09:46:55;21.40;64.00
15105;DHT22;7653;48.994;9.212;2023-07-28T09:49:35;21.60;60.90
15105;DHT22;7653;48.994;9.212;2023-07-28T09:52:05;21.40;59.90
15105;DHT22;7653;48.994;9.212;2023-07-28T09:54:36;21.40;60.70
15105;DHT22;7653;48.994;9.212;2023-07-28T09:57:04;21.50;60.80
15105;DHT22;7653;48.994;9.212;2023-07-28T09:59:37;21.80;61.50
15105;DHT22;7653;48.994;9.212;2023-07-28T10:02:04;21.80;59.80
15105;DHT22;7653;48.994;9.212;2023-07-28T10:04:31;21.70;59.50
15105;DHT22;7653;48.994;9.212;2023-07-28T10:06:57;21.60;58.40
15105;DHT22;7653;48.994;9.212;2023-07-28T10:09:28;21.60;59.90
15105;DHT22;7653;48.994;9.212;2023-07-28T10:11:55;21.70;58.50
15105;DHT22;7653;48.994;9.212;2023-07-28T10:14:34;21.80;58.00
15105;DHT22;7653;48.994;9.212;2023-07-28T10:17:04;21.80;58.00
15105;DHT22;7653;48.994;9.212;2023-07-28T10:19:34;21.80;57.40
15105;DHT22;7653;48.994;9.212;2023-07-28T10:27:35;22.10;56.50
15105;DHT22;7653;48.994;9.212;2023-07-28T10:30:03;22.40;56.80
15105;DHT22;7653;48.994;9.212;2023-07-28T10:32:37;22.30;52.60
15105;DHT22;7653;48.994;9.212;2023-07-28T10:37:44;22.10;53.30
15105;DHT22;7653;48.994;9.212;2023-07-28T10:40:43;22.00;54.80
15105;DHT22;7653;48.994;9.212;2023-07-28T10:43:09;22.00;55.50
15105;DHT22;7653;48.994;9.212;2023-07-28T10:45:34;21.90;56.20
15105;DHT22;7653;48.994;9.212;2023-07-28T10:48:00;22.00;55.40
15105;DHT22;7653;48.994;9.212;2023-07-28T10:50:29;22.10;52.80
15105;DHT22;7653;48.994;9.212;2023-07-28T10:52:56;22.20;52.30
15105;DHT22;7653;48.994;9.212;2023-07-28T10:55:28;22.20;52.90
15105;DHT22;7653;48.994;9.212;2023-07-28T10:57:54;22.00;53.10
15105;DHT22;7653;48.994;9.212;2023-07-28T11:00:22;22.10;52.40
15105;DHT22;7653;48.994;9.212;2023-07-28T11:02:49;22.30;51.80
15105;DHT22;7653;48.994;9.212;2023-07-28T11:05:20;22.30;51.70
15105;DHT22;7653;48.994;9.212;2023-07-28T11:07:47;22.00;53.30
15105;DHT22;7653;48.994;9.212;2023-07-28T11:10:13;22.00;54.80
15105;DHT22;7653;48.994;9.212;2023-07-28T11:12:45;22.00;54.20
15105;DHT22;7653;48.994;9.212;2023-07-28T11:15:13;22.10;55.50
15105;DHT22;7653;48.994;9.212;2023-07-28T11:17:40;22.20;54.30
15105;DHT22;7653;48.994;9.212;2023-07-28T11:20:16;22.20;53.20
15105;DHT22;7653;48.994;9.212;2023-07-28T11:22:46;22.20;51.70
15105;DHT22;7653;48.994;9.212;2023-07-28T11:25:12;22.00;54.40
15105;DHT22;7653;48.994;9.212;2023-07-28T11:27:39;21.80;56.80
15105;DHT22;7653;48.994;9.212;2023-07-28T11:30:08;21.70;57.30
15105;DHT22;7653;48.994;9.212;2023-07-28T11:32:36;21.70;58.60
15105;DHT22;7653;48.994;9.212;2023-07-28T11:35:06;21.70;56.10
15105;DHT22;7653;48.994;9.212;2023-07-28T11:37:33;21.50;57.60
15105;DHT22;7653;48.994;9.212;2023-07-28T11:40:00;21.40;59.80
15105;DHT22;7653;48.994;9.212;2023-07-28T11:42:30;21.50;60.10
15105;DHT22;7653;48.994;9.212;2023-07-28T11:44:57;21.60;59.30
15105;DHT22;7653;48.994;9.212;2023-07-28T11:47:24;21.70;58.00
15105;DHT22;7653;48.994;9.212;2023-07-28T11:49:49;21.70;60.00
15105;DHT22;7653;48.994;9.212;2023-07-28T11:52:16;21.80;59.30
15105;DHT22;7653;48.994;9.212;2023-07-28T11:54:44;21.80;58.90
15105;DHT22;7653;48.994;9.212;2023-07-28T11:57:10;22.10;57.90
15105;DHT22;7653;48.994;9.212;2023-07-28T11:59:37;22.00;57.00
15105;DHT22;7653;48.994;9.212;2023-07-28T12:02:03;22.30;56.30
15105;DHT22;7653;48.994;9.212;2023-07-28T12:04:36;22.50;55.30
15105;DHT22;7653;48.994;9.212;2023-07-28T12:07:16;22.60;53.00
15105;DHT22;7653;48.994;9.212;2023-07-28T12:12:19;22.50;52.80
15105;DHT22;7653;48.994;9.212;2023-07-28T12:14:45;22.90;51.40
15105;DHT22;7653;48.994;9.212;2023-07-28T12:22:27;23.00;49.20
15105;DHT22;7653;48.994;9.212;2023-07-28T12:24:54;23.00;49.00
15105;DHT22;7653;48.994;9.212;2023-07-28T12:27:20;22.90;49.10
15105;DHT22;7653;48.994;9.212;2023-07-28T12:29:49;22.90;47.90
15105;DHT22;7653;48.994;9.212;2023-07-28T12:32:15;22.80;45.70
15105;DHT22;7653;48.994;9.212;2023-07-28T12:34:40;22.70;47.10
15105;DHT22;7653;48.994;9.212;2023-07-28T12:37:06;22.70;46.30
15105;DHT22;7653;48.994;9.212;2023-07-28T12:39:33;22.70;47.10
15105;DHT22;7653;48.994;9.212;2023-07-28T12:41:59;22.60;47.30
15105;DHT22;7653;48.994;9.212;2023-07-28T12:44:24;22.60;49.80
15105;DHT22;7653;48.994;9.212;2023-07-28T12:46:50;22.30;52.70
15105;DHT22;7653;48.994;9.212;2023-07-28T12:49:15;22.10;54.90
15105;DHT22;7653;48.994;9.212;2023-07-28T12:51:41;21.70;61.80
15105;DHT22;7653;48.994;9.212;2023-07-28T12:54:07;21.50;71.80
15105;DHT22;7653;48.994;9.212;2023-07-28T12:56:32;21.20;72.00
15105;DHT22;7653;48.994;9.212;2023-07-28T12:58:58;21.00;74.20
15105;DHT22;7653;48.994;9.212;2023-07-28T13:01:24;21.00;76.30
15105;DHT22;7653;48.994;9.212;2023-07-28T13:03:49;20.90;76.20
15105;DHT22;7653;48.994;9.212;2023-07-28T13:06:15;21.00;81.70
15105;DHT22;7653;48.994;9.212;2023-07-28T13:08:41;21.10;81.00
15105;DHT22;7653;48.994;9.212;2023-07-28T13:11:06;21.10;78.50
15105;DHT22;7653;48.994;9.212;2023-07-28T13:13:32;21.00;76.40
15105;DHT22;7653;48.994;9.212;2023-07-28T13:15:58;21.10;80.00
15105;DHT22;7653;48.994;9.212;2023-07-28T13:18:24;21.20;81.40
15105;DHT22;7653;48.994;9.212;2023-07-28T13:20:55;21.20;76.80
15105;DHT22;7653;48.994;9.212;2023-07-28T13:23:20;21.20;84.00
15105;DHT22;7653;48.994;9.212;2023-07-28T13:25:46;21.00;80.60
15105;DHT22;7653;48.994;9.212;2023-07-28T13:28:11;20.90;82.50
15105;DHT22;7653;48.994;9.212;2023-07-28T13:30:37;20.80;81.40
15105;DHT22;7653;48.994;9.212;2023-07-28T13:33:03;20.70;83.50
15105;DHT22;7653;48.994;9.212;2023-07-28T13:35:30;20.70;85.40
15105;DHT22;7653;48.994;9.212;2023-07-28T13:37:56;20.80;89.10
15105;DHT22;7653;48.994;9.212;2023-07-28T13:40:21;20.80;89.10
15105;DHT22;7653;48.994;9.212;2023-07-28T13:42:47;20.90;89.30
15105;DHT22;7653;48.994;9.212;2023-07-28T13:45:13;20.80;90.00
15105;DHT22;7653;48.994;9.212;2023-07-28T13:47:38;20.90;90.60
15105;DHT22;7653;48.994;9.212;2023-07-28T13:50:04;20.80;90.60
15105;DHT22;7653;48.994;9.212;2023-07-28T13:52:30;20.60;90.00
15105;DHT22;7653;48.994;9.212;2023-07-28T13:54:56;20.70;91.20
15105;DHT22;7653;48.994;9.212;2023-07-28T13:57:21;20.80;90.40
15105;DHT22;7653;48.994;9.212;2023-07-28T13:59:47;20.70;89.00
15105;DHT22;7653;48.994;9.212;2023-07-28T14:02:13;20.60;92.00
15105;DHT22;7653;48.994;9.212;2023-07-28T14:04:38;20.70;91.60
15105;DHT22;7653;48.994;9.212;2023-07-28T14:07:04;20.80;92.40
15105;DHT22;7653;48.994;9.212;2023-07-28T14:09:30;20.80;90.70
15105;DHT22;7653;48.994;9.212;2023-07-28T14:11:55;20.90;90.50
15105;DHT22;7653;48.994;9.212;2023-07-28T14:14:21;20.90;90.90
15105;DHT22;7653;48.994;9.212;2023-07-28T14:16:46;20.80;93.20
15105;DHT22;7653;48.994;9.212;2023-07-28T14:19:12;20.60;95.60
15105;DHT22;7653;48.994;9.212;2023-07-28T14:21:38;20.50;96.70
15105;DHT22;7653;48.994;9.212;2023-07-28T14:24:05;20.60;97.60
15105;DHT22;7653;48.994;9.212;2023-07-28T14:26:31;20.60;96.90
15105;DHT22;7653;48.994;9.212;2023-07-28T14:28:56;20.70;97.30
15105;DHT22;7653;48.994;9.212;2023-07-28T14:31:22;20.60;97.30
15105;DHT22;7653;48.994;9.212;2023-07-28T14:33:48;20.60;95.80
15105;DHT22;7653;48.994;9.212;2023-07-28T14:36:13;20.70;95.70
15105;DHT22;7653;48.994;9.212;2023-07-28T14:38:39;20.90;96.30
15105;DHT22;7653;48.994;9.212;2023-07-28T14:41:05;21.10;92.60
15105;DHT22;7653;48.994;9.212;2023-07-28T14:43:30;21.30;91.40
15105;DHT22;7653;48.994;9.212;2023-07-28T14:45:56;21.30;91.20
15105;DHT22;7653;48.994;9.212;2023-07-28T14:48:22;21.10;92.40
15105;DHT22;7653;48.994;9.212;2023-07-28T14:50:47;21.20;92.60
15105;DHT22;7653;48.994;9.212;2023-07-28T14:53:33;21.30;91.20
15105;DHT22;7653;48.994;9.212;2023-07-28T14:56:00;21.50;91.10
15105;DHT22;7653;48.994;9.212;2023-07-28T14:58:27;21.50;91.60
15105;DHT22;7653;48.994;9.212;2023-07-28T15:00:53;21.60;89.80
15105;DHT22;7653;48.994;9.212;2023-07-28T15:03:19;21.40;91.70
15105;DHT22;7653;48.994;9.212;2023-07-28T15:05:45;21.40;92.60
15105;DHT22;7653;48.994;9.212;2023-07-28T15:08:11;21.20;92.40
15105;DHT22;7653;48.994;9.212;2023-07-28T15:10:36;21.10;93.80
15105;DHT22;7653;48.994;9.212;2023-07-28T15:13:02;21.30;93.70
15105;DHT22;7653;48.994;9.212;2023-07-28T15:15:28;21.00;94.20
15105;DHT22;7653;48.994;9.212;2023-07-28T15:17:53;21.20;94.20
15105;DHT22;7653;48.994;9.212;2023-07-28T15:20:19;21.30;93.30
15105;DHT22;7653;48.994;9.212;2023-07-28T15:22:47;21.50;91.90
15105;DHT22;7653;48.994;9.212;2023-07-28T15:25:13;21.50;87.30
15105;DHT22;7653;48.994;9.212;2023-07-28T15:27:42;21.50;89.70
15105;DHT22;7653;48.994;9.212;2023-07-28T15:30:09;21.60;89.80
15105;DHT22;7653;48.994;9.212;2023-07-28T15:32:35;21.50;88.60
15105;DHT22;7653;48.994;9.212;2023-07-28T15:35:01;21.50;89.10
15105;DHT22;7653;48.994;9.212;2023-07-28T15:37:28;21.20;89.50
15105;DHT22;7653;48.994;9.212;2023-07-28T15:39:54;21.00;92.20
15105;DHT22;7653;48.994;9.212;2023-07-28T15:42:21;21.10;91.40
15105;DHT22;7653;48.994;9.212;2023-07-28T15:44:47;21.10;93.00
15105;DHT22;7653;48.994;9.212;2023-07-28T15:47:12;21.10;93.30
15105;DHT22;7653;48.994;9.212;2023-07-28T15:49:38;21.10;91.40
15105;DHT22;7653;48.994;9.212;2023-07-28T15:52:04;21.00;92.40
15105;DHT22;7653;48.994;9.212;2023-07-28T15:54:30;20.80;93.10
15105;DHT22;7653;48.994;9.212;2023-07-28T15:56:56;20.70;94.40
15105;DHT22;7653;48.994;9.212;2023-07-28T15:59:22;20.40;94.60
15105;DHT22;7653;48.994;9.212;2023-07-28T16:01:47;20.00;97.30